sensor_id;sensor_type;location;lat;lon;timestamp;P1;durP1;ratioP1;P2;durP2;ratioP2
47335;SDS011;33068;51.990;5.926;2023-06-22T00:02:21;4.25;;;2.20;;
47335;SDS011;33068;51.990;5.926;2023-06-22T00:04:48;5.40;;;2.30;;
47335;SDS011;33068;51.990;5.926;2023-06-22T00:07:16;3.55;;;2.33;;
47335;SDS011;33068;51.990;5.926;2023-06-22T00:09:44;5.03;;;2.03;;
47335;SDS011;33068;51.990;5.926;2023-06-22T00:12:11;2.58;;;2.00;;
47335;SDS011;33068;51.990;5.926;2023-06-22T00:14:38;3.22;;;2.20;;
47335;SDS011;33068;51.990;5.926;2023-06-22T00:17:05;4.88;;;2.03;;
47335;SDS011;33068;51.990;5.926;2023-06-22T00:19:32;2.58;;;2.00;;
47335;SDS011;33068;51.990;5.926;2023-06-22T00:22:00;4.72;;;2.40;;
47335;SDS011;33068;51.990;5.926;2023-06-22T00:24:30;3.30;;;2.45;;
47335;SDS011;33068;51.990;5.926;2023-06-22T00:26:57;5.38;;;2.67;;
47335;SDS011;33068;51.990;5.926;2023-06-22T00:29:24;6.57;;;2.90;;
47335;SDS011;33068;51.990;5.926;2023-06-22T00:31:51;4.72;;;2.40;;
47335;SDS011;33068;51.990;5.926;2023-06-22T00:34:21;3.58;;;2.72;;
47335;SDS011;33068;51.990;5.926;2023-06-22T00:36:48;3.53;;;2.58;;
47335;SDS011;33068;51.990;5.926;2023-06-22T00:39:17;3.55;;;2.72;;
47335;SDS011;33068;51.990;5.926;2023-06-22T00:41:45;5.53;;;3.03;;
47335;SDS011;33068;51.990;5.926;2023-06-22T00:44:12;3.85;;;2.85;;
47335;SDS011;33068;51.990;5.926;2023-06-22T00:46:39;6.85;;;3.10;;
47335;SDS011;33068;51.990;5.926;2023-06-22T00:49:06;4.03;;;2.97;;
47335;SDS011;33068;51.990;5.926;2023-06-22T00:51:34;4.38;;;3.15;;
47335;SDS011;33068;51.990;5.926;2023-06-22T00:54:04;4.80;;;3.13;;
47335;SDS011;33068;51.990;5.926;2023-06-22T00:56:31;4.78;;;3.30;;
47335;SDS011;33068;51.990;5.926;2023-06-22T00:59:04;4.47;;;3.22;;
47335;SDS011;33068;51.990;5.926;2023-06-22T01:01:31;6.40;;;3.00;;
47335;SDS011;33068;51.990;5.926;2023-06-22T01:04:07;7.43;;;3.10;;
47335;SDS011;33068;51.990;5.926;2023-06-22T01:06:45;5.75;;;3.00;;
47335;SDS011;33068;51.990;5.926;2023-06-22T01:09:59;5.05;;;3.25;;
47335;SDS011;33068;51.990;5.926;2023-06-22T01:13:21;4.35;;;3.47;;
47335;SDS011;33068;51.990;5.926;2023-06-22T01:16:31;5.55;;;3.63;;
47335;SDS011;33068;51.990;5.926;2023-06-22T01:19:09;3.50;;;3.20;;
47335;SDS011;33068;51.990;5.926;2023-06-22T01:22:10;4.93;;;3.22;;
47335;SDS011;33068;51.990;5.926;2023-06-22T01:24:59;6.20;;;3.53;;
47335;SDS011;33068;51.990;5.926;2023-06-22T01:27:41;4.95;;;3.30;;
47335;SDS011;33068;51.990;5.926;2023-06-22T01:30:38;6.22;;;3.67;;
47335;SDS011;33068;51.990;5.926;2023-06-22T01:36:10;5.32;;;3.75;;
47335;SDS011;33068;51.990;5.926;2023-06-22T01:39:26;6.78;;;3.47;;
47335;SDS011;33068;51.990;5.926;2023-06-22T01:42:03;4.72;;;3.33;;
47335;SDS011;33068;51.990;5.926;2023-06-22T01:44:41;4.85;;;3.78;;
47335;SDS011;33068;51.990;5.926;2023-06-22T01:47:37;6.78;;;4.15;;
47335;SDS011;33068;51.990;5.926;2023-06-22T01:50:23;5.88;;;4.63;;
47335;SDS011;33068;51.990;5.926;2023-06-22T01:52:51;8.35;;;3.53;;
47335;SDS011;33068;51.990;5.926;2023-06-22T01:55:36;9.27;;;5.60;;
47335;SDS011;33068;51.990;5.926;2023-06-22T01:58:04;6.35;;;5.07;;
47335;SDS011;33068;51.990;5.926;2023-06-22T02:00:31;7.63;;;4.65;;
47335;SDS011;33068;51.990;5.926;2023-06-22T02:05:38;5.78;;;4.53;;
47335;SDS011;33068;51.990;5.926;2023-06-22T02:08:15;11.35;;;4.93;;
47335;SDS011;33068;51.990;5.926;2023-06-22T02:10:46;8.05;;;4.60;;
47335;SDS011;33068;51.990;5.926;2023-06-22T02:13:18;9.80;;;4.63;;
47335;SDS011;33068;51.990;5.926;2023-06-22T02:15:49;7.93;;;5.15;;
47335;SDS011;33068;51.990;5.926;2023-06-22T02:18:18;9.35;;;5.32;;
47335;SDS011;33068;51.990;5.926;2023-06-22T02:20:46;6.00;;;4.97;;
47335;SDS011;33068;51.990;5.926;2023-06-22T02:23:13;5.85;;;4.80;;
47335;SDS011;33068;51.990;5.926;2023-06-22T02:25:40;8.13;;;5.00;;
47335;SDS011;33068;51.990;5.926;2023-06-22T02:28:09;10.35;;;5.95;;
47335;SDS011;33068;51.990;5.926;2023-06-22T02:30:37;6.90;;;4.75;;
47335;SDS011;33068;51.990;5.926;2023-06-22T02:33:06;8.23;;;5.88;;
47335;SDS011;33068;51.990;5.926;2023-06-22T02:35:34;7.97;;;6.20;;
47335;SDS011;33068;51.990;5.926;2023-06-22T02:38:02;9.10;;;6.18;;
47335;SDS011;33068;51.990;5.926;2023-06-22T02:40:30;7.47;;;6.10;;
47335;SDS011;33068;51.990;5.926;2023-06-22T02:42:58;8.55;;;6.20;;
47335;SDS011;33068;51.990;5.926;2023-06-22T02:45:27;8.50;;;5.88;;
47335;SDS011;33068;51.990;5.926;2023-06-22T02:47:55;9.82;;;6.53;;
47335;SDS011;33068;51.990;5.926;2023-06-22T02:50:23;11.15;;;7.45;;
47335;SDS011;33068;51.990;5.926;2023-06-22T02:52:52;8.68;;;6.30;;
47335;SDS011;33068;51.990;5.926;2023-06-22T02:55:20;11.18;;;7.30;;
47335;SDS011;33068;51.990;5.926;2023-06-22T02:57:53;9.93;;;7.88;;
47335;SDS011;33068;51.990;5.926;2023-06-22T03:00:23;10.02;;;7.45;;
47335;SDS011;33068;51.990;5.926;2023-06-22T03:03:02;10.93;;;7.03;;
47335;SDS011;33068;51.990;5.926;2023-06-22T03:06:46;11.35;;;8.35;;
47335;SDS011;33068;51.990;5.926;2023-06-22T03:09:28;14.20;;;9.40;;
47335;SDS011;33068;51.990;5.926;2023-06-22T03:12:05;16.63;;;10.57;;
47335;SDS011;33068;51.990;5.926;2023-06-22T03:14:52;14.23;;;10.68;;
47335;SDS011;33068;51.990;5.926;2023-06-22T03:17:19;18.92;;;11.48;;
47335;SDS011;33068;51.990;5.926;2023-06-22T03:19:50;23.10;;;14.18;;
47335;SDS011;33068;51.990;5.926;2023-06-22T03:22:23;17.83;;;13.52;;
47335;SDS011;33068;51.990;5.926;2023-06-22T03:24:54;23.40;;;14.90;;
47335;SDS011;33068;51.990;5.926;2023-06-22T03:27:39;21.05;;;14.65;;
47335;SDS011;33068;51.990;5.926;2023-06-22T03:30:22;21.77;;;13.13;;
47335;SDS011;33068;51.990;5.926;2023-06-22T03:32:49;20.05;;;14.30;;
47335;SDS011;33068;51.990;5.926;2023-06-22T03:35:26;16.25;;;13.15;;
47335;SDS011;33068;51.990;5.926;2023-06-22T03:37:56;17.65;;;13.05;;
47335;SDS011;33068;51.990;5.926;2023-06-22T03:40:33;18.15;;;12.73;;
47335;SDS011;33068;51.990;5.926;2023-06-22T03:43:12;20.80;;;13.68;;
47335;SDS011;33068;51.990;5.926;2023-06-22T03:48:30;19.73;;;13.82;;
47335;SDS011;33068;51.990;5.926;2023-06-22T03:51:06;21.77;;;15.25;;
47335;SDS011;33068;51.990;5.926;2023-06-22T03:53:37;26.88;;;14.75;;
47335;SDS011;33068;51.990;5.926;2023-06-22T03:56:13;22.25;;;15.15;;
47335;SDS011;33068;51.990;5.926;2023-06-22T04:01:30;27.10;;;17.05;;
47335;SDS011;33068;51.990;5.926;2023-06-22T04:03:57;26.65;;;17.00;;
47335;SDS011;33068;51.990;5.926;2023-06-22T04:06:24;25.17;;;18.17;;
47335;SDS011;33068;51.990;5.926;2023-06-22T04:08:59;26.45;;;18.20;;
47335;SDS011;33068;51.990;5.926;2023-06-22T04:11:27;24.10;;;17.75;;
47335;SDS011;33068;51.990;5.926;2023-06-22T04:13:56;26.95;;;19.33;;
47335;SDS011;33068;51.990;5.926;2023-06-22T04:16:24;29.40;;;21.23;;
47335;SDS011;33068;51.990;5.926;2023-06-22T04:18:51;33.00;;;20.70;;
47335;SDS011;33068;51.990;5.926;2023-06-22T04:21:20;28.58;;;20.38;;
47335;SDS011;33068;51.990;5.926;2023-06-22T04:23:47;30.05;;;21.15;;
47335;SDS011;33068;51.990;5.926;2023-06-22T04:26:15;32.47;;;21.70;;
47335;SDS011;33068;51.990;5.926;2023-06-22T04:29:07;29.75;;;21.02;;
47335;SDS011;33068;51.990;5.926;2023-06-22T04:32:10;30.45;;;22.40;;
47335;SDS011;33068;51.990;5.926;2023-06-22T04:34:40;30.88;;;21.70;;
47335;SDS011;33068;51.990;5.926;2023-06-22T04:37:22;30.63;;;22.58;;
47335;SDS011;33068;51.990;5.926;2023-06-22T04:39:50;36.53;;;22.02;;
47335;SDS011;33068;51.990;5.926;2023-06-22T04:42:21;31.10;;;22.95;;
47335;SDS011;33068;51.990;5.926;2023-06-22T04:44:53;31.55;;;22.83;;
47335;SDS011;33068;51.990;5.926;2023-06-22T04:47:35;32.50;;;23.73;;
47335;SDS011;33068;51.990;5.926;2023-06-22T04:50:49;30.98;;;21.88;;
47335;SDS011;33068;51.990;5.926;2023-06-22T04:53:29;34.03;;;23.42;;
47335;SDS011;33068;51.990;5.926;2023-06-22T04:55:57;33.45;;;23.83;;
47335;SDS011;33068;51.990;5.926;2023-06-22T04:58:29;33.55;;;22.38;;
47335;SDS011;33068;51.990;5.926;2023-06-22T05:01:05;32.97;;;21.80;;
47335;SDS011;33068;51.990;5.926;2023-06-22T05:03:36;30.15;;;21.90;;
47335;SDS011;33068;51.990;5.926;2023-06-22T05:06:09;33.30;;;22.08;;
47335;SDS011;33068;51.990;5.926;2023-06-22T05:08:39;26.83;;;20.67;;
47335;SDS011;33068;51.990;5.926;2023-06-22T05:11:07;29.20;;;21.70;;
47335;SDS011;33068;51.990;5.926;2023-06-22T05:13:34;28.45;;;20.23;;
47335;SDS011;33068;51.990;5.926;2023-06-22T05:16:01;26.92;;;20.35;;
47335;SDS011;33068;51.990;5.926;2023-06-22T05:18:30;27.42;;;20.52;;
47335;SDS011;33068;51.990;5.926;2023-06-22T05:20:58;24.20;;;19.25;;
47335;SDS011;33068;51.990;5.926;2023-06-22T05:23:25;25.48;;;19.25;;
47335;SDS011;33068;51.990;5.926;2023-06-22T05:28:30;24.88;;;18.30;;
47335;SDS011;33068;51.990;5.926;2023-06-22T05:30:59;24.38;;;18.00;;
47335;SDS011;33068;51.990;5.926;2023-06-22T05:33:30;23.73;;;16.77;;
47335;SDS011;33068;51.990;5.926;2023-06-22T05:35:58;23.52;;;16.50;;
47335;SDS011;33068;51.990;5.926;2023-06-22T05:38:25;22.00;;;15.77;;
47335;SDS011;33068;51.990;5.926;2023-06-22T05:40:56;25.27;;;16.75;;
47335;SDS011;33068;51.990;5.926;2023-06-22T05:43:26;21.60;;;15.65;;
47335;SDS011;33068;51.990;5.926;2023-06-22T05:45:54;19.58;;;15.20;;
47335;SDS011;33068;51.990;5.926;2023-06-22T05:48:21;20.75;;;16.40;;
47335;SDS011;33068;51.990;5.926;2023-06-22T05:50:49;21.17;;;15.02;;
47335;SDS011;33068;51.990;5.926;2023-06-22T05:53:17;22.23;;;14.75;;
47335;SDS011;33068;51.990;5.926;2023-06-22T05:55:44;21.30;;;14.27;;
47335;SDS011;33068;51.990;5.926;2023-06-22T05:58:11;20.00;;;14.05;;
47335;SDS011;33068;51.990;5.926;2023-06-22T06:00:39;17.25;;;12.90;;
47335;SDS011;33068;51.990;5.926;2023-06-22T06:03:07;19.67;;;13.10;;
47335;SDS011;33068;51.990;5.926;2023-06-22T06:05:35;18.93;;;12.70;;
47335;SDS011;33068;51.990;5.926;2023-06-22T06:08:05;20.75;;;13.18;;
47335;SDS011;33068;51.990;5.926;2023-06-22T06:10:32;17.55;;;12.38;;
47335;SDS011;33068;51.990;5.926;2023-06-22T06:13:00;16.58;;;12.45;;
47335;SDS011;33068;51.990;5.926;2023-06-22T06:15:29;19.85;;;13.15;;
47335;SDS011;33068;51.990;5.926;2023-06-22T06:17:57;16.83;;;13.00;;
47335;SDS011;33068;51.990;5.926;2023-06-22T06:20:25;18.77;;;13.30;;
47335;SDS011;33068;51.990;5.926;2023-06-22T06:22:53;18.02;;;11.93;;
47335;SDS011;33068;51.990;5.926;2023-06-22T06:25:22;18.40;;;12.43;;
47335;SDS011;33068;51.990;5.926;2023-06-22T06:27:49;14.52;;;11.35;;
47335;SDS011;33068;51.990;5.926;2023-06-22T06:30:19;15.55;;;12.57;;
47335;SDS011;33068;51.990;5.926;2023-06-22T06:32:47;21.63;;;12.75;;
47335;SDS011;33068;51.990;5.926;2023-06-22T06:35:15;15.52;;;11.57;;
47335;SDS011;33068;51.990;5.926;2023-06-22T06:37:43;16.15;;;12.35;;
47335;SDS011;33068;51.990;5.926;2023-06-22T06:40:13;16.85;;;12.45;;
47335;SDS011;33068;51.990;5.926;2023-06-22T06:42:44;16.65;;;11.77;;
47335;SDS011;33068;51.990;5.926;2023-06-22T06:45:12;13.27;;;10.90;;
47335;SDS011;33068;51.990;5.926;2023-06-22T06:47:42;17.30;;;11.05;;
47335;SDS011;33068;51.990;5.926;2023-06-22T06:50:10;17.33;;;11.07;;
47335;SDS011;33068;51.990;5.926;2023-06-22T06:52:37;16.35;;;10.93;;
47335;SDS011;33068;51.990;5.926;2023-06-22T06:55:04;14.68;;;11.35;;
47335;SDS011;33068;51.990;5.926;2023-06-22T06:57:34;17.95;;;9.85;;
47335;SDS011;33068;51.990;5.926;2023-06-22T07:00:04;15.15;;;10.95;;
47335;SDS011;33068;51.990;5.926;2023-06-22T07:02:37;13.95;;;9.25;;
47335;SDS011;33068;51.990;5.926;2023-06-22T07:05:05;12.18;;;9.15;;
47335;SDS011;33068;51.990;5.926;2023-06-22T07:07:33;12.50;;;8.70;;
47335;SDS011;33068;51.990;5.926;2023-06-22T07:10:00;15.57;;;9.65;;
47335;SDS011;33068;51.990;5.926;2023-06-22T07:12:28;12.13;;;9.10;;
47335;SDS011;33068;51.990;5.926;2023-06-22T07:15:00;13.95;;;9.45;;
47335;SDS011;33068;51.990;5.926;2023-06-22T07:17:30;15.27;;;9.57;;
47335;SDS011;33068;51.990;5.926;2023-06-22T07:20:00;11.50;;;9.65;;
47335;SDS011;33068;51.990;5.926;2023-06-22T07:22:33;12.00;;;9.00;;
47335;SDS011;33068;51.990;5.926;2023-06-22T07:25:03;12.45;;;8.98;;
47335;SDS011;33068;51.990;5.926;2023-06-22T07:27:35;11.73;;;8.65;;
47335;SDS011;33068;51.990;5.926;2023-06-22T07:30:05;10.82;;;8.25;;
47335;SDS011;33068;51.990;5.926;2023-06-22T07:32:34;15.70;;;8.80;;
47335;SDS011;33068;51.990;5.926;2023-06-22T07:35:04;10.30;;;8.00;;
47335;SDS011;33068;51.990;5.926;2023-06-22T07:37:32;9.02;;;7.70;;
47335;SDS011;33068;51.990;5.926;2023-06-22T07:40:00;13.13;;;7.72;;
47335;SDS011;33068;51.990;5.926;2023-06-22T07:42:31;11.98;;;6.95;;
47335;SDS011;33068;51.990;5.926;2023-06-22T07:44:59;8.75;;;6.97;;
47335;SDS011;33068;51.990;5.926;2023-06-22T07:47:27;12.00;;;7.40;;
47335;SDS011;33068;51.990;5.926;2023-06-22T07:49:58;9.65;;;6.80;;
47335;SDS011;33068;51.990;5.926;2023-06-22T07:52:29;9.32;;;7.03;;
47335;SDS011;33068;51.990;5.926;2023-06-22T07:55:34;10.35;;;6.97;;
47335;SDS011;33068;51.990;5.926;2023-06-22T07:58:52;9.18;;;6.60;;
47335;SDS011;33068;51.990;5.926;2023-06-22T08:01:29;9.50;;;5.85;;
47335;SDS011;33068;51.990;5.926;2023-06-22T08:07:18;8.50;;;6.53;;
47335;SDS011;33068;51.990;5.926;2023-06-22T08:13:18;8.50;;;5.70;;
47335;SDS011;33068;51.990;5.926;2023-06-22T08:16:14;9.35;;;6.22;;
47335;SDS011;33068;51.990;5.926;2023-06-22T08:19:06;9.10;;;6.07;;
47335;SDS011;33068;51.990;5.926;2023-06-22T08:24:54;8.15;;;6.25;;
47335;SDS011;33068;51.990;5.926;2023-06-22T08:27:44;7.60;;;5.18;;
47335;SDS011;33068;51.990;5.926;2023-06-22T08:30:15;9.10;;;6.30;;
47335;SDS011;33068;51.990;5.926;2023-06-22T08:33:03;8.90;;;6.00;;
47335;SDS011;33068;51.990;5.926;2023-06-22T08:35:31;7.68;;;5.93;;
47335;SDS011;33068;51.990;5.926;2023-06-22T08:38:02;8.70;;;4.70;;
47335;SDS011;33068;51.990;5.926;2023-06-22T08:40:35;7.53;;;5.35;;
47335;SDS011;33068;51.990;5.926;2023-06-22T08:43:02;6.70;;;4.95;;
47335;SDS011;33068;51.990;5.926;2023-06-22T08:45:30;7.50;;;5.53;;
47335;SDS011;33068;51.990;5.926;2023-06-22T08:47:57;10.30;;;5.15;;
47335;SDS011;33068;51.990;5.926;2023-06-22T08:50:26;8.25;;;5.57;;
47335;SDS011;33068;51.990;5.926;2023-06-22T08:52:53;8.75;;;5.25;;
47335;SDS011;33068;51.990;5.926;2023-06-22T08:55:20;10.50;;;5.35;;
47335;SDS011;33068;51.990;5.926;2023-06-22T08:57:49;6.80;;;4.78;;
47335;SDS011;33068;51.990;5.926;2023-06-22T09:00:16;5.20;;;4.70;;
47335;SDS011;33068;51.990;5.926;2023-06-22T09:02:45;6.03;;;4.72;;
47335;SDS011;33068;51.990;5.926;2023-06-22T09:05:13;11.48;;;4.90;;
47335;SDS011;33068;51.990;5.926;2023-06-22T09:07:41;6.88;;;4.57;;
47335;SDS011;33068;51.990;5.926;2023-06-22T09:10:08;6.13;;;4.93;;
47335;SDS011;33068;51.990;5.926;2023-06-22T09:12:36;5.47;;;3.88;;
47335;SDS011;33068;51.990;5.926;2023-06-22T09:15:05;5.40;;;4.55;;
47335;SDS011;33068;51.990;5.926;2023-06-22T09:17:33;4.43;;;3.83;;
47335;SDS011;33068;51.990;5.926;2023-06-22T09:20:02;6.13;;;4.43;;
47335;SDS011;33068;51.990;5.926;2023-06-22T09:22:33;8.93;;;4.72;;
47335;SDS011;33068;51.990;5.926;2023-06-22T09:25:00;7.60;;;5.25;;
47335;SDS011;33068;51.990;5.926;2023-06-22T09:27:28;4.05;;;3.67;;
47335;SDS011;33068;51.990;5.926;2023-06-22T09:29:55;5.35;;;3.70;;
47335;SDS011;33068;51.990;5.926;2023-06-22T09:32:25;4.95;;;3.55;;
47335;SDS011;33068;51.990;5.926;2023-06-22T09:34:52;5.50;;;4.00;;
47335;SDS011;33068;51.990;5.926;2023-06-22T09:37:19;6.38;;;3.20;;
47335;SDS011;33068;51.990;5.926;2023-06-22T09:43:22;4.30;;;3.70;;
47335;SDS011;33068;51.990;5.926;2023-06-22T09:45:52;4.25;;;3.80;;
47335;SDS011;33068;51.990;5.926;2023-06-22T09:48:20;5.47;;;3.92;;
47335;SDS011;33068;51.990;5.926;2023-06-22T09:51:11;4.55;;;3.60;;
47335;SDS011;33068;51.990;5.926;2023-06-22T09:53:54;5.90;;;3.13;;
47335;SDS011;33068;51.990;5.926;2023-06-22T09:56:48;4.95;;;3.55;;
47335;SDS011;33068;51.990;5.926;2023-06-22T09:59:16;3.63;;;3.17;;
47335;SDS011;33068;51.990;5.926;2023-06-22T10:01:43;3.25;;;2.88;;
47335;SDS011;33068;51.990;5.926;2023-06-22T10:04:14;4.68;;;3.17;;
47335;SDS011;33068;51.990;5.926;2023-06-22T10:06:43;14.30;;;3.40;;
47335;SDS011;33068;51.990;5.926;2023-06-22T10:09:11;5.22;;;3.30;;
47335;SDS011;33068;51.990;5.926;2023-06-22T10:14:22;2.88;;;2.65;;
47335;SDS011;33068;51.990;5.926;2023-06-22T10:16:51;4.78;;;3.15;;
47335;SDS011;33068;51.990;5.926;2023-06-22T10:19:23;5.93;;;3.35;;
47335;SDS011;33068;51.990;5.926;2023-06-22T10:22:10;12.05;;;3.83;;
47335;SDS011;33068;51.990;5.926;2023-06-22T10:24:42;4.40;;;3.25;;
47335;SDS011;33068;51.990;5.926;2023-06-22T10:27:15;6.22;;;3.20;;
47335;SDS011;33068;51.990;5.926;2023-06-22T10:29:46;3.80;;;3.40;;
47335;SDS011;33068;51.990;5.926;2023-06-22T10:32:18;5.47;;;3.78;;
47335;SDS011;33068;51.990;5.926;2023-06-22T10:34:47;5.68;;;3.53;;
47335;SDS011;33068;51.990;5.926;2023-06-22T10:37:19;6.43;;;3.53;;
47335;SDS011;33068;51.990;5.926;2023-06-22T10:39:46;7.35;;;3.45;;
47335;SDS011;33068;51.990;5.926;2023-06-22T10:42:14;5.63;;;3.70;;
47335;SDS011;33068;51.990;5.926;2023-06-22T10:44:42;3.38;;;3.08;;
47335;SDS011;33068;51.990;5.926;2023-06-22T10:47:10;4.25;;;3.83;;
47335;SDS011;33068;51.990;5.926;2023-06-22T10:49:37;4.45;;;2.97;;
47335;SDS011;33068;51.990;5.926;2023-06-22T10:52:08;5.18;;;3.90;;
47335;SDS011;33068;51.990;5.926;2023-06-22T10:54:35;5.78;;;3.85;;
47335;SDS011;33068;51.990;5.926;2023-06-22T10:57:14;5.38;;;3.60;;
47335;SDS011;33068;51.990;5.926;2023-06-22T10:59:58;5.78;;;3.60;;
47335;SDS011;33068;51.990;5.926;2023-06-22T11:02:28;5.82;;;4.00;;
47335;SDS011;33068;51.990;5.926;2023-06-22T11:04:56;3.97;;;3.67;;
47335;SDS011;33068;51.990;5.926;2023-06-22T11:07:29;6.65;;;4.10;;
47335;SDS011;33068;51.990;5.926;2023-06-22T11:09:58;6.65;;;4.45;;
47335;SDS011;33068;51.990;5.926;2023-06-22T11:12:25;6.07;;;4.22;;
47335;SDS011;33068;51.990;5.926;2023-06-22T11:14:57;4.78;;;4.05;;
47335;SDS011;33068;51.990;5.926;2023-06-22T11:17:42;5.50;;;4.78;;
47335;SDS011;33068;51.990;5.926;2023-06-22T11:20:09;5.72;;;4.10;;
47335;SDS011;33068;51.990;5.926;2023-06-22T11:22:39;8.43;;;4.60;;
47335;SDS011;33068;51.990;5.926;2023-06-22T11:25:14;4.38;;;3.85;;
47335;SDS011;33068;51.990;5.926;2023-06-22T11:27:42;4.55;;;4.15;;
47335;SDS011;33068;51.990;5.926;2023-06-22T11:30:09;6.40;;;4.75;;
47335;SDS011;33068;51.990;5.926;2023-06-22T11:32:37;7.93;;;5.43;;
47335;SDS011;33068;51.990;5.926;2023-06-22T11:35:04;7.85;;;6.05;;
47335;SDS011;33068;51.990;5.926;2023-06-22T11:37:41;5.90;;;5.38;;
47335;SDS011;33068;51.990;5.926;2023-06-22T11:40:08;6.13;;;5.53;;
47335;SDS011;33068;51.990;5.926;2023-06-22T11:42:36;8.60;;;6.15;;
47335;SDS011;33068;51.990;5.926;2023-06-22T11:45:04;9.20;;;5.60;;
47335;SDS011;33068;51.990;5.926;2023-06-22T11:47:33;9.68;;;6.22;;
47335;SDS011;33068;51.990;5.926;2023-06-22T11:50:00;9.73;;;6.03;;
47335;SDS011;33068;51.990;5.926;2023-06-22T11:52:27;9.38;;;6.93;;
47335;SDS011;33068;51.990;5.926;2023-06-22T11:54:56;10.27;;;7.28;;
47335;SDS011;33068;51.990;5.926;2023-06-22T11:57:24;13.13;;;8.73;;
47335;SDS011;33068;51.990;5.926;2023-06-22T11:59:51;10.43;;;8.10;;
47335;SDS011;33068;51.990;5.926;2023-06-22T12:02:19;10.27;;;8.20;;
47335;SDS011;33068;51.990;5.926;2023-06-22T12:04:46;11.73;;;8.80;;
47335;SDS011;33068;51.990;5.926;2023-06-22T12:07:13;12.35;;;9.15;;
47335;SDS011;33068;51.990;5.926;2023-06-22T12:09:43;9.57;;;8.55;;
47335;SDS011;33068;51.990;5.926;2023-06-22T12:12:12;10.23;;;9.18;;
47335;SDS011;33068;51.990;5.926;2023-06-22T12:14:39;12.77;;;9.52;;
47335;SDS011;33068;51.990;5.926;2023-06-22T12:17:06;14.27;;;11.82;;
47335;SDS011;33068;51.990;5.926;2023-06-22T12:19:33;13.30;;;11.63;;
47335;SDS011;33068;51.990;5.926;2023-06-22T12:22:01;21.00;;;14.02;;
47335;SDS011;33068;51.990;5.926;2023-06-22T12:24:28;15.70;;;13.88;;
47335;SDS011;33068;51.990;5.926;2023-06-22T12:26:55;15.65;;;14.05;;
47335;SDS011;33068;51.990;5.926;2023-06-22T12:29:24;17.75;;;15.52;;
47335;SDS011;33068;51.990;5.926;2023-06-22T12:31:51;23.27;;;16.75;;
47335;SDS011;33068;51.990;5.926;2023-06-22T12:34:18;18.02;;;16.05;;
47335;SDS011;33068;51.990;5.926;2023-06-22T12:36:45;17.48;;;15.32;;
47335;SDS011;33068;51.990;5.926;2023-06-22T12:39:13;22.42;;;16.75;;
47335;SDS011;33068;51.990;5.926;2023-06-22T12:41:41;20.35;;;18.05;;
47335;SDS011;33068;51.990;5.926;2023-06-22T12:44:08;25.45;;;18.85;;
47335;SDS011;33068;51.990;5.926;2023-06-22T12:46:37;24.00;;;19.52;;
47335;SDS011;33068;51.990;5.926;2023-06-22T12:49:04;28.95;;;21.20;;
47335;SDS011;33068;51.990;5.926;2023-06-22T12:51:31;30.52;;;24.67;;
47335;SDS011;33068;51.990;5.926;2023-06-22T12:53:59;26.90;;;22.08;;
47335;SDS011;33068;51.990;5.926;2023-06-22T12:56:26;28.52;;;22.92;;
47335;SDS011;33068;51.990;5.926;2023-06-22T12:58:53;26.45;;;22.48;;
47335;SDS011;33068;51.990;5.926;2023-06-22T13:01:20;25.30;;;21.60;;
47335;SDS011;33068;51.990;5.926;2023-06-22T13:03:48;24.08;;;20.40;;
47335;SDS011;33068;51.990;5.926;2023-06-22T13:06:16;21.58;;;19.25;;
47335;SDS011;33068;51.990;5.926;2023-06-22T13:08:43;22.90;;;18.67;;
47335;SDS011;33068;51.990;5.926;2023-06-22T13:11:10;22.17;;;18.98;;
47335;SDS011;33068;51.990;5.926;2023-06-22T13:13:40;26.75;;;20.80;;
47335;SDS011;33068;51.990;5.926;2023-06-22T13:16:08;21.85;;;19.45;;
47335;SDS011;33068;51.990;5.926;2023-06-22T13:18:35;23.05;;;20.55;;
47335;SDS011;33068;51.990;5.926;2023-06-22T13:21:03;22.13;;;19.23;;
47335;SDS011;33068;51.990;5.926;2023-06-22T13:23:31;26.05;;;21.27;;
47335;SDS011;33068;51.990;5.926;2023-06-22T13:25:59;29.52;;;21.67;;
47335;SDS011;33068;51.990;5.926;2023-06-22T13:28:30;25.70;;;20.08;;
47335;SDS011;33068;51.990;5.926;2023-06-22T13:30:57;26.15;;;20.35;;
47335;SDS011;33068;51.990;5.926;2023-06-22T13:33:24;24.35;;;20.60;;
47335;SDS011;33068;51.990;5.926;2023-06-22T13:35:51;24.10;;;21.05;;
47335;SDS011;33068;51.990;5.926;2023-06-22T13:38:20;24.77;;;21.00;;
47335;SDS011;33068;51.990;5.926;2023-06-22T13:40:47;29.38;;;23.35;;
47335;SDS011;33068;51.990;5.926;2023-06-22T13:43:14;28.10;;;22.98;;
47335;SDS011;33068;51.990;5.926;2023-06-22T13:45:43;30.90;;;21.60;;
47335;SDS011;33068;51.990;5.926;2023-06-22T13:48:10;28.23;;;23.35;;
47335;SDS011;33068;51.990;5.926;2023-06-22T13:50:37;29.50;;;23.38;;
47335;SDS011;33068;51.990;5.926;2023-06-22T13:53:05;30.60;;;25.30;;
47335;SDS011;33068;51.990;5.926;2023-06-22T13:55:35;32.72;;;26.50;;
47335;SDS011;33068;51.990;5.926;2023-06-22T13:58:02;28.27;;;25.25;;
47335;SDS011;33068;51.990;5.926;2023-06-22T14:00:29;34.45;;;26.73;;
47335;SDS011;33068;51.990;5.926;2023-06-22T14:02:56;32.85;;;25.63;;
47335;SDS011;33068;51.990;5.926;2023-06-22T14:05:24;26.83;;;24.02;;
47335;SDS011;33068;51.990;5.926;2023-06-22T14:07:53;55.88;;;42.47;;
47335;SDS011;33068;51.990;5.926;2023-06-22T14:10:26;74.82;;;53.60;;
47335;SDS011;33068;51.990;5.926;2023-06-22T14:12:55;66.65;;;49.70;;
47335;SDS011;33068;51.990;5.926;2023-06-22T14:15:22;39.67;;;31.73;;
47335;SDS011;33068;51.990;5.926;2023-06-22T14:17:49;49.35;;;34.80;;
47335;SDS011;33068;51.990;5.926;2023-06-22T14:20:17;38.67;;;29.77;;
47335;SDS011;33068;51.990;5.926;2023-06-22T14:22:44;33.00;;;25.52;;
47335;SDS011;33068;51.990;5.926;2023-06-22T14:25:12;31.33;;;23.65;;
47335;SDS011;33068;51.990;5.926;2023-06-22T14:27:39;31.77;;;24.45;;
47335;SDS011;33068;51.990;5.926;2023-06-22T14:30:08;29.77;;;23.77;;
47335;SDS011;33068;51.990;5.926;2023-06-22T14:32:35;28.45;;;22.77;;
47335;SDS011;33068;51.990;5.926;2023-06-22T14:35:03;26.63;;;23.35;;
47335;SDS011;33068;51.990;5.926;2023-06-22T14:37:30;25.67;;;22.45;;
47335;SDS011;33068;51.990;5.926;2023-06-22T14:39:57;28.65;;;23.80;;
47335;SDS011;33068;51.990;5.926;2023-06-22T14:42:24;28.48;;;23.55;;
47335;SDS011;33068;51.990;5.926;2023-06-22T14:44:53;25.73;;;22.02;;
47335;SDS011;33068;51.990;5.926;2023-06-22T14:47:22;26.58;;;20.95;;
47335;SDS011;33068;51.990;5.926;2023-06-22T14:49:49;27.55;;;20.63;;
47335;SDS011;33068;51.990;5.926;2023-06-22T14:52:16;30.08;;;24.15;;
47335;SDS011;33068;51.990;5.926;2023-06-22T14:54:43;30.98;;;23.27;;
47335;SDS011;33068;51.990;5.926;2023-06-22T14:57:11;47.25;;;31.80;;
47335;SDS011;33068;51.990;5.926;2023-06-22T14:59:38;44.20;;;31.45;;
47335;SDS011;33068;51.990;5.926;2023-06-22T15:02:05;63.20;;;40.25;;
47335;SDS011;33068;51.990;5.926;2023-06-22T15:04:34;125.18;;;78.75;;
47335;SDS011;33068;51.990;5.926;2023-06-22T15:07:04;78.20;;;47.65;;
47335;SDS011;33068;51.990;5.926;2023-06-22T15:09:32;104.80;;;61.70;;
47335;SDS011;33068;51.990;5.926;2023-06-22T15:11:59;98.90;;;58.70;;
47335;SDS011;33068;51.990;5.926;2023-06-22T15:14:31;85.30;;;51.53;;
47335;SDS011;33068;51.990;5.926;2023-06-22T15:16:58;68.35;;;42.90;;
47335;SDS011;33068;51.990;5.926;2023-06-22T15:19:25;100.13;;;58.17;;
47335;SDS011;33068;51.990;5.926;2023-06-22T15:21:58;89.72;;;54.35;;
47335;SDS011;33068;51.990;5.926;2023-06-22T15:24:25;140.07;;;74.30;;
47335;SDS011;33068;51.990;5.926;2023-06-22T15:26:52;104.90;;;55.65;;
47335;SDS011;33068;51.990;5.926;2023-06-22T15:29:23;106.72;;;56.28;;